sensor_id;sensor_type;location;lat;lon;timestamp;pressure;altitude;pressure_sealevel;temperature;humidity
69796;BME280;57073;45.650;9.612;2023-06-22T00:03:25;99537.66;;;25.18;46.80
69796;BME280;57073;45.650;9.612;2023-06-22T00:08:25;99531.19;;;25.23;46.63
69796;BME280;57073;45.650;9.612;2023-06-22T00:13:26;99520.66;;;25.16;46.81
69796;BME280;57073;45.650;9.612;2023-06-22T00:18:26;99530.56;;;25.08;46.57
69796;BME280;57073;45.650;9.612;2023-06-22T00:23:28;99514.34;;;24.98;46.90
69796;BME280;57073;45.650;9.612;2023-06-22T00:28:28;99531.19;;;25.14;46.59
69796;BME280;57073;45.650;9.612;2023-06-22T00:33:29;99526.03;;;25.04;47.18
69796;BME280;57073;45.650;9.612;2023-06-22T00:38:29;99523.91;;;25.09;47.08
69796;BME280;57073;45.650;9.612;2023-06-22T00:43:29;99521.16;;;25.01;47.58
69796;BME280;57073;45.650;9.612;2023-06-22T00:48:30;99523.28;;;24.95;47.17
69796;BME280;57073;45.650;9.612;2023-06-22T00:53:30;99527.84;;;24.91;47.04
69796;BME280;57073;45.650;9.612;2023-06-22T00:58:36;99524.91;;;24.87;46.45
69796;BME280;57073;45.650;9.612;2023-06-22T01:03:36;99533.19;;;24.79;47.52
69796;BME280;57073;45.650;9.612;2023-06-22T01:08:48;99532.69;;;24.68;47.68
69796;BME280;57073;45.650;9.612;2023-06-22T01:14:03;99527.03;;;24.73;47.54
69796;BME280;57073;45.650;9.612;2023-06-22T01:19:34;99521.81;;;24.71;46.87
69796;BME280;57073;45.650;9.612;2023-06-22T01:24:45;99530.94;;;24.63;47.49
69796;BME280;57073;45.650;9.612;2023-06-22T01:29:55;99523.47;;;24.46;47.10
69796;BME280;57073;45.650;9.612;2023-06-22T01:35:01;99529.13;;;24.50;47.29
69796;BME280;57073;45.650;9.612;2023-06-22T01:40:05;99532.56;;;24.47;46.86
69796;BME280;57073;45.650;9.612;2023-06-22T01:45:07;99526.06;;;24.43;47.79
69796;BME280;57073;45.650;9.612;2023-06-22T01:50:08;99530.28;;;24.49;47.56
69796;BME280;57073;45.650;9.612;2023-06-22T01:55:09;99532.25;;;24.40;47.07
69796;BME280;57073;45.650;9.612;2023-06-22T02:00:12;99530.75;;;24.42;47.18
69796;BME280;57073;45.650;9.612;2023-06-22T02:05:17;99534.31;;;24.43;47.47
69796;BME280;57073;45.650;9.612;2023-06-22T02:10:20;99530.44;;;24.44;47.41
69796;BME280;57073;45.650;9.612;2023-06-22T02:15:22;99530.13;;;24.37;48.21
69796;BME280;57073;45.650;9.612;2023-06-22T02:20:23;99522.28;;;24.21;48.61
69796;BME280;57073;45.650;9.612;2023-06-22T02:25:24;99522.66;;;24.28;48.18
69796;BME280;57073;45.650;9.612;2023-06-22T02:30:24;99534.00;;;24.35;48.63
69796;BME280;57073;45.650;9.612;2023-06-22T02:35:26;99535.78;;;24.31;47.79
69796;BME280;57073;45.650;9.612;2023-06-22T02:40:27;99533.03;;;24.31;48.06
69796;BME280;57073;45.650;9.612;2023-06-22T02:45:27;99531.25;;;24.35;47.65
69796;BME280;57073;45.650;9.612;2023-06-22T02:50:28;99534.81;;;24.27;47.74
69796;BME280;57073;45.650;9.612;2023-06-22T02:55:28;99538.19;;;24.24;48.03
69796;BME280;57073;45.650;9.612;2023-06-22T03:00:28;99518.72;;;24.21;47.65
69796;BME280;57073;45.650;9.612;2023-06-22T03:05:30;99522.81;;;24.23;46.82
69796;BME280;57073;45.650;9.612;2023-06-22T03:10:32;99511.13;;;24.09;47.40
69796;BME280;57073;45.650;9.612;2023-06-22T03:15:33;99513.69;;;24.05;47.97
69796;BME280;57073;45.650;9.612;2023-06-22T03:20:33;99522.31;;;24.12;48.13
69796;BME280;57073;45.650;9.612;2023-06-22T03:25:35;99512.25;;;24.16;47.71
69796;BME280;57073;45.650;9.612;2023-06-22T03:30:35;99526.97;;;24.12;48.64
69796;BME280;57073;45.650;9.612;2023-06-22T03:35:36;99530.88;;;24.11;48.75
69796;BME280;57073;45.650;9.612;2023-06-22T03:40:36;99533.97;;;24.18;47.71
69796;BME280;57073;45.650;9.612;2023-06-22T03:45:37;99522.13;;;24.09;48.26
69796;BME280;57073;45.650;9.612;2023-06-22T03:50:37;99520.97;;;24.10;47.66
69796;BME280;57073;45.650;9.612;2023-06-22T03:55:45;99507.03;;;23.97;48.05
69796;BME280;57073;45.650;9.612;2023-06-22T04:00:49;99517.59;;;24.13;48.23
69796;BME280;57073;45.650;9.612;2023-06-22T04:05:50;99517.44;;;24.09;47.46
69796;BME280;57073;45.650;9.612;2023-06-22T04:10:50;99520.00;;;24.06;48.08
69796;BME280;57073;45.650;9.612;2023-06-22T04:15:51;99536.38;;;24.11;48.55
69796;BME280;57073;45.650;9.612;2023-06-22T04:20:51;99525.41;;;24.28;49.01
69796;BME280;57073;45.650;9.612;2023-06-22T04:25:51;99522.66;;;24.46;47.80
69796;BME280;57073;45.650;9.612;2023-06-22T04:30:52;99525.41;;;24.46;47.58
69796;BME280;57073;45.650;9.612;2023-06-22T04:35:52;99523.94;;;24.48;47.53
69796;BME280;57073;45.650;9.612;2023-06-22T04:40:53;99517.16;;;24.63;46.32
69796;BME280;57073;45.650;9.612;2023-06-22T04:45:53;99516.47;;;24.66;45.59
69796;BME280;57073;45.650;9.612;2023-06-22T04:50:54;99514.50;;;25.02;45.57
69796;BME280;57073;45.650;9.612;2023-06-22T04:55:54;99512.06;;;25.56;44.49
69796;BME280;57073;45.650;9.612;2023-06-22T05:00:54;99517.78;;;25.81;43.55
69796;BME280;57073;45.650;9.612;2023-06-22T05:05:57;99521.63;;;26.18;43.35
69796;BME280;57073;45.650;9.612;2023-06-22T05:10:57;99530.31;;;26.08;42.55
69796;BME280;57073;45.650;9.612;2023-06-22T05:15:57;99521.47;;;25.94;42.74
69796;BME280;57073;45.650;9.612;2023-06-22T05:21:01;99531.25;;;25.82;42.79
69796;BME280;57073;45.650;9.612;2023-06-22T05:26:01;99527.25;;;26.01;42.75
69796;BME280;57073;45.650;9.612;2023-06-22T05:31:02;99517.16;;;26.05;42.91
69796;BME280;57073;45.650;9.612;2023-06-22T05:36:02;99522.44;;;26.40;42.31
69796;BME280;57073;45.650;9.612;2023-06-22T05:41:02;99510.19;;;26.29;42.04
69796;BME280;57073;45.650;9.612;2023-06-22T05:46:03;99510.41;;;26.57;42.21
69796;BME280;57073;45.650;9.612;2023-06-22T05:51:04;99488.91;;;26.96;42.15
69796;BME280;57073;45.650;9.612;2023-06-22T05:56:05;99502.69;;;27.17;41.56
69796;BME280;57073;45.650;9.612;2023-06-22T06:01:05;99501.44;;;27.88;40.49
69796;BME280;57073;45.650;9.612;2023-06-22T06:06:05;99528.50;;;28.32;40.40
69796;BME280;57073;45.650;9.612;2023-06-22T06:11:06;99543.81;;;28.95;39.73
69796;BME280;57073;45.650;9.612;2023-06-22T06:16:06;99570.75;;;28.66;38.53
69796;BME280;57073;45.650;9.612;2023-06-22T06:21:06;99577.88;;;29.23;38.33
69796;BME280;57073;45.650;9.612;2023-06-22T06:26:07;99591.75;;;29.07;37.81
69796;BME280;57073;45.650;9.612;2023-06-22T06:31:07;99590.88;;;28.38;37.99
69796;BME280;57073;45.650;9.612;2023-06-22T06:36:08;99582.16;;;28.11;38.33
69796;BME280;57073;45.650;9.612;2023-06-22T06:41:09;99589.19;;;28.33;38.30
69796;BME280;57073;45.650;9.612;2023-06-22T06:46:09;99579.44;;;28.52;37.20
69796;BME280;57073;45.650;9.612;2023-06-22T06:51:10;99581.13;;;28.97;37.00
69796;BME280;57073;45.650;9.612;2023-06-22T06:56:10;99582.28;;;29.24;37.35
69796;BME280;57073;45.650;9.612;2023-06-22T07:01:12;99592.13;;;29.66;36.90
69796;BME280;57073;45.650;9.612;2023-06-22T07:06:13;99588.97;;;29.67;36.07
69796;BME280;57073;45.650;9.612;2023-06-22T07:11:13;99577.88;;;29.67;36.43
69796;BME280;57073;45.650;9.612;2023-06-22T07:16:14;99577.81;;;29.99;35.08
69796;BME280;57073;45.650;9.612;2023-06-22T07:21:14;99572.13;;;30.28;34.90
69796;BME280;57073;45.650;9.612;2023-06-22T07:26:14;99568.03;;;30.41;34.69
69796;BME280;57073;45.650;9.612;2023-06-22T07:31:16;99567.03;;;30.88;33.47
69796;BME280;57073;45.650;9.612;2023-06-22T07:36:17;99566.22;;;31.07;33.14
69796;BME280;57073;45.650;9.612;2023-06-22T07:41:18;99548.75;;;30.87;32.11
69796;BME280;57073;45.650;9.612;2023-06-22T07:46:19;99542.19;;;30.76;32.76
69796;BME280;57073;45.650;9.612;2023-06-22T07:51:20;99555.22;;;31.34;32.97
69796;BME280;57073;45.650;9.612;2023-06-22T07:56:20;99547.56;;;31.77;32.47
69796;BME280;57073;45.650;9.612;2023-06-22T08:01:21;99547.94;;;31.29;31.32
69796;BME280;57073;45.650;9.612;2023-06-22T08:06:21;99537.72;;;31.37;30.84
69796;BME280;57073;45.650;9.612;2023-06-22T08:11:21;99526.03;;;31.74;31.13
69796;BME280;57073;45.650;9.612;2023-06-22T08:16:24;99510.53;;;31.77;31.58
69796;BME280;57073;45.650;9.612;2023-06-22T08:21:24;99499.91;;;32.16;32.09
69796;BME280;57073;45.650;9.612;2023-06-22T08:26:24;99489.22;;;32.52;32.38
69796;BME280;57073;45.650;9.612;2023-06-22T08:31:25;99479.41;;;32.01;32.00
69796;BME280;57073;45.650;9.612;2023-06-22T08:36:25;99466.28;;;31.75;31.33
69796;BME280;57073;45.650;9.612;2023-06-22T08:41:29;99465.97;;;31.80;31.64
69796;BME280;57073;45.650;9.612;2023-06-22T08:46:29;99505.41;;;31.82;32.25
69796;BME280;57073;45.650;9.612;2023-06-22T08:51:30;99500.22;;;32.38;32.23
69796;BME280;57073;45.650;9.612;2023-06-22T08:56:30;99493.50;;;32.12;31.01
69796;BME280;57073;45.650;9.612;2023-06-22T09:01:31;99492.78;;;32.49;32.19
69796;BME280;57073;45.650;9.612;2023-06-22T09:06:31;99496.91;;;32.96;32.16
69796;BME280;57073;45.650;9.612;2023-06-22T09:11:32;99501.91;;;32.80;30.01
69796;BME280;57073;45.650;9.612;2023-06-22T09:16:32;99497.50;;;32.79;29.06
69796;BME280;57073;45.650;9.612;2023-06-22T09:21:33;99499.91;;;32.80;30.01
69796;BME280;57073;45.650;9.612;2023-06-22T09:26:33;99499.53;;;32.82;29.04
69796;BME280;57073;45.650;9.612;2023-06-22T09:31:33;99506.38;;;32.84;30.74
69796;BME280;57073;45.650;9.612;2023-06-22T09:36:34;99504.28;;;33.15;30.32
69796;BME280;57073;45.650;9.612;2023-06-22T09:41:35;99499.41;;;33.08;30.40
69796;BME280;57073;45.650;9.612;2023-06-22T09:46:35;99490.88;;;33.32;30.26
69796;BME280;57073;45.650;9.612;2023-06-22T09:51:36;99474.09;;;33.32;30.78
69796;BME280;57073;45.650;9.612;2023-06-22T09:56:36;99467.69;;;33.31;29.13
69796;BME280;57073;45.650;9.612;2023-06-22T10:01:37;99467.00;;;33.45;29.68
69796;BME280;57073;45.650;9.612;2023-06-22T10:06:38;99447.06;;;33.46;29.73
69796;BME280;57073;45.650;9.612;2023-06-22T10:11:40;99452.59;;;33.39;29.67
69796;BME280;57073;45.650;9.612;2023-06-22T10:16:41;99441.50;;;33.54;29.27
69796;BME280;57073;45.650;9.612;2023-06-22T10:21:41;99442.38;;;33.65;29.10
69796;BME280;57073;45.650;9.612;2023-06-22T10:26:41;99430.94;;;32.81;27.49
69796;BME280;57073;45.650;9.612;2023-06-22T10:31:42;99422.66;;;32.95;27.49
69796;BME280;57073;45.650;9.612;2023-06-22T10:36:42;99414.75;;;33.01;27.24
69796;BME280;57073;45.650;9.612;2023-06-22T10:41:42;99407.78;;;32.80;26.68
69796;BME280;57073;45.650;9.612;2023-06-22T10:46:43;99388.69;;;32.45;27.47
69796;BME280;57073;45.650;9.612;2023-06-22T10:51:43;99383.84;;;32.08;27.58
69796;BME280;57073;45.650;9.612;2023-06-22T10:56:44;99374.13;;;32.25;28.55
69796;BME280;57073;45.650;9.612;2023-06-22T11:01:44;99369.56;;;32.47;27.98
69796;BME280;57073;45.650;9.612;2023-06-22T11:06:45;99364.94;;;32.65;28.50
69796;BME280;57073;45.650;9.612;2023-06-22T11:11:45;99355.81;;;32.27;29.76
69796;BME280;57073;45.650;9.612;2023-06-22T11:16:46;99340.50;;;32.14;28.61
69796;BME280;57073;45.650;9.612;2023-06-22T11:21:49;99325.59;;;32.37;28.92
69796;BME280;57073;45.650;9.612;2023-06-22T11:26:49;99324.78;;;31.65;28.18
69796;BME280;57073;45.650;9.612;2023-06-22T11:31:50;99307.63;;;31.32;29.44
69796;BME280;57073;45.650;9.612;2023-06-22T11:36:50;99309.81;;;31.77;29.28
69796;BME280;57073;45.650;9.612;2023-06-22T11:41:50;99317.75;;;31.74;28.16
69796;BME280;57073;45.650;9.612;2023-06-22T11:46:51;99318.41;;;31.34;27.18
69796;BME280;57073;45.650;9.612;2023-06-22T11:51:51;99308.72;;;31.85;28.00
69796;BME280;57073;45.650;9.612;2023-06-22T11:56:51;99310.06;;;31.34;27.92
69796;BME280;57073;45.650;9.612;2023-06-22T12:01:52;99301.94;;;31.86;29.00
69796;BME280;57073;45.650;9.612;2023-06-22T12:06:52;99304.69;;;31.82;29.10
69796;BME280;57073;45.650;9.612;2023-06-22T12:11:52;99298.03;;;31.60;28.27
69796;BME280;57073;45.650;9.612;2023-06-22T12:16:53;99297.88;;;31.76;28.34
69796;BME280;57073;45.650;9.612;2023-06-22T12:21:53;99291.34;;;31.65;29.66
69796;BME280;57073;45.650;9.612;2023-06-22T12:26:54;99294.38;;;31.52;30.10
69796;BME280;57073;45.650;9.612;2023-06-22T12:31:54;99292.25;;;31.72;30.71
69796;BME280;57073;45.650;9.612;2023-06-22T12:36:54;99301.34;;;31.69;29.08
69796;BME280;57073;45.650;9.612;2023-06-22T12:41:55;99305.59;;;31.60;28.53
69796;BME280;57073;45.650;9.612;2023-06-22T12:46:55;99297.63;;;31.58;29.21
69796;BME280;57073;45.650;9.612;2023-06-22T12:51:55;99310.34;;;31.89;28.63
69796;BME280;57073;45.650;9.612;2023-06-22T12:56:56;99310.84;;;31.99;28.92
69796;BME280;57073;45.650;9.612;2023-06-22T13:01:56;99305.47;;;32.17;29.77
69796;BME280;57073;45.650;9.612;2023-06-22T13:06:57;99307.97;;;32.25;30.27
69796;BME280;57073;45.650;9.612;2023-06-22T13:11:57;99291.63;;;31.90;29.30
69796;BME280;57073;45.650;9.612;2023-06-22T13:16:57;99283.63;;;31.54;29.68
69796;BME280;57073;45.650;9.612;2023-06-22T13:21:58;99258.19;;;31.93;30.42
69796;BME280;57073;45.650;9.612;2023-06-22T13:26:59;99247.28;;;31.74;30.94
69796;BME280;57073;45.650;9.612;2023-06-22T13:31:59;99234.75;;;31.27;31.12
69796;BME280;57073;45.650;9.612;2023-06-22T13:37:00;99248.91;;;31.48;30.55
69796;BME280;57073;45.650;9.612;2023-06-22T13:42:00;99253.06;;;31.62;31.51
69796;BME280;57073;45.650;9.612;2023-06-22T13:47:01;99253.50;;;31.98;31.58
69796;BME280;57073;45.650;9.612;2023-06-22T13:52:01;99254.03;;;31.43;31.09
69796;BME280;57073;45.650;9.612;2023-06-22T13:57:03;99250.28;;;31.62;31.67
69796;BME280;57073;45.650;9.612;2023-06-22T14:02:05;99254.84;;;31.77;31.23
69796;BME280;57073;45.650;9.612;2023-06-22T14:07:05;99258.97;;;31.56;31.02
69796;BME280;57073;45.650;9.612;2023-06-22T14:12:06;99250.22;;;31.88;31.59
69796;BME280;57073;45.650;9.612;2023-06-22T14:17:07;99252.22;;;31.58;31.72
69796;BME280;57073;45.650;9.612;2023-06-22T14:22:07;99239.03;;;31.85;31.88
69796;BME280;57073;45.650;9.612;2023-06-22T14:27:08;99243.75;;;31.81;31.66
69796;BME280;57073;45.650;9.612;2023-06-22T14:32:09;99247.16;;;31.67;31.81
69796;BME280;57073;45.650;9.612;2023-06-22T14:37:10;99237.81;;;31.52;31.90
69796;BME280;57073;45.650;9.612;2023-06-22T14:42:10;99210.06;;;31.25;31.31
69796;BME280;57073;45.650;9.612;2023-06-22T14:47:11;99226.97;;;31.13;31.51
69796;BME280;57073;45.650;9.612;2023-06-22T14:52:11;99229.09;;;31.20;31.66
69796;BME280;57073;45.650;9.612;2023-06-22T14:57:11;99228.97;;;31.12;31.71
69796;BME280;57073;45.650;9.612;2023-06-22T15:02:12;99232.06;;;31.07;31.51
69796;BME280;57073;45.650;9.612;2023-06-22T15:07:12;99224.78;;;31.26;31.47
69796;BME280;57073;45.650;9.612;2023-06-22T15:12:13;99236.25;;;30.94;31.52
69796;BME280;57073;45.650;9.612;2023-06-22T15:17:13;99240.59;;;31.18;31.71
69796;BME280;57073;45.650;9.612;2023-06-22T15:22:15;99247.94;;;31.33;32.35
69796;BME280;57073;45.650;9.612;2023-06-22T15:27:18;99258.50;;;31.51;32.56
69796;BME280;57073;45.650;9.612;2023-06-22T15:32:19;99268.69;;;31.09;33.41
69796;BME280;57073;45.650;9.612;2023-06-22T15:37:19;99287.03;;;31.41;32.63
69796;BME280;57073;45.650;9.612;2023-06-22T15:42:20;99284.97;;;31.34;32.64
69796;BME280;57073;45.650;9.612;2023-06-22T15:47:20;99274.78;;;31.45;32.31
69796;BME280;57073;45.650;9.612;2023-06-22T15:52:22;99269.53;;;31.13;31.59
69796;BME280;57073;45.650;9.612;2023-06-22T15:57:24;99270.69;;;31.39;31.46
69796;BME280;57073;45.650;9.612;2023-06-22T16:02:26;99274.34;;;31.43;31.03
69796;BME280;57073;45.650;9.612;2023-06-22T16:07:27;99267.06;;;31.35;30.19
69796;BME280;57073;45.650;9.612;2023-06-22T16:12:27;99259.22;;;31.44;30.28
69796;BME280;57073;45.650;9.612;2023-06-22T16:17:29;99291.63;;;31.56;30.96
69796;BME280;57073;45.650;9.612;2023-06-22T16:22:29;99283.53;;;31.47;30.05
69796;BME280;57073;45.650;9.612;2023-06-22T16:27:29;99277.72;;;31.60;30.55
69796;BME280;57073;45.650;9.612;2023-06-22T16:32:32;99286.63;;;31.69;30.77
69796;BME280;57073;45.650;9.612;2023-06-22T16:37:32;99261.75;;;31.56;29.87
69796;BME280;57073;45.650;9.612;2023-06-22T16:42:32;99264.25;;;31.65;30.50
69796;BME280;57073;45.650;9.612;2023-06-22T16:47:34;99266.81;;;31.78;31.18
69796;BME280;57073;45.650;9.612;2023-06-22T16:52:35;99252.03;;;31.73;31.02
69796;BME280;57073;45.650;9.612;2023-06-22T16:57:38;99238.47;;;31.38;31.59
69796;BME280;57073;45.650;9.612;2023-06-22T17:02:43;99230.13;;;32.58;28.38
69796;BME280;57073;45.650;9.612;2023-06-22T17:07:58;99240.53;;;33.27;27.06
69796;BME280;57073;45.650;9.612;2023-06-22T17:13:02;99237.09;;;33.66;25.76
69796;BME280;57073;45.650;9.612;2023-06-22T17:18:04;99249.94;;;33.89;26.16
69796;BME280;57073;45.650;9.612;2023-06-22T17:23:06;99239.56;;;33.93;25.66
69796;BME280;57073;45.650;9.612;2023-06-22T17:28:06;99251.59;;;34.04;25.76
69796;BME280;57073;45.650;9.612;2023-06-22T17:33:13;99246.78;;;34.08;25.78
69796;BME280;57073;45.650;9.612;2023-06-22T17:38:21;99242.41;;;34.18;25.28
69796;BME280;57073;45.650;9.612;2023-06-22T17:43:25;99221.22;;;34.56;24.68
69796;BME280;57073;45.650;9.612;2023-06-22T17:48:25;99209.19;;;34.92;24.67
69796;BME280;57073;45.650;9.612;2023-06-22T17:53:29;99209.50;;;35.19;24.95
69796;BME280;57073;45.650;9.612;2023-06-22T17:58:30;99221.91;;;35.07;24.63
69796;BME280;57073;45.650;9.612;2023-06-22T18:03:30;99241.97;;;34.98;23.46
69796;BME280;57073;45.650;9.612;2023-06-22T18:08:31;99230.78;;;34.91;23.98
69796;BME280;57073;45.650;9.612;2023-06-22T18:13:32;99226.75;;;35.14;24.71
69796;BME280;57073;45.650;9.612;2023-06-22T18:18:33;99230.31;;;35.14;22.27
69796;BME280;57073;45.650;9.612;2023-06-22T18:23:35;99229.16;;;35.12;23.21
69796;BME280;57073;45.650;9.612;2023-06-22T18:28:37;99228.72;;;35.21;23.91
69796;BME280;57073;45.650;9.612;2023-06-22T18:33:37;99222.34;;;35.06;25.04
69796;BME280;57073;45.650;9.612;2023-06-22T18:38:41;99197.53;;;35.08;23.43
69796;BME280;57073;45.650;9.612;2023-06-22T18:43:42;99174.06;;;34.66;23.56
69796;BME280;57073;45.650;9.612;2023-06-22T18:48:43;99154.25;;;35.16;23.60
69796;BME280;57073;45.650;9.612;2023-06-22T18:53:43;99173.91;;;35.05;22.42
69796;BME280;57073;45.650;9.612;2023-06-22T18:58:55;99173.09;;;35.05;23.13
69796;BME280;57073;45.650;9.612;2023-06-22T19:03:57;99169.97;;;34.92;23.02
69796;BME280;57073;45.650;9.612;2023-06-22T19:09:15;99110.13;;;33.74;25.46
69796;BME280;57073;45.650;9.612;2023-06-22T19:14:19;99082.78;;;32.22;28.99
69796;BME280;57073;45.650;9.612;2023-06-22T19:19:21;99087.44;;;31.63;30.56
69796;BME280;57073;45.650;9.612;2023-06-22T19:24:31;99109.78;;;31.25;31.70
69796;BME280;57073;45.650;9.612;2023-06-22T19:29:32;99105.34;;;30.60;33.20
69796;BME280;57073;45.650;9.612;2023-06-22T19:34:35;99106.53;;;30.32;34.31
69796;BME280;57073;45.650;9.612;2023-06-22T19:39:36;99095.78;;;29.81;35.55
69796;BME280;57073;45.650;9.612;2023-06-22T19:44:37;99084.25;;;29.79;35.96
69796;BME280;57073;45.650;9.612;2023-06-22T19:49:37;99073.78;;;29.26;37.01
69796;BME280;57073;45.650;9.612;2023-06-22T19:54:39;99073.44;;;29.08;38.13
69796;BME280;57073;45.650;9.612;2023-06-22T19:59:40;99075.13;;;29.36;36.46
69796;BME280;57073;45.650;9.612;2023-06-22T20:04:40;99078.81;;;29.40;36.47
69796;BME280;57073;45.650;9.612;2023-06-22T20:09:41;99093.19;;;29.45;36.51
69796;BME280;57073;45.650;9.612;2023-06-22T20:14:42;99099.94;;;29.25;37.20
69796;BME280;57073;45.650;9.612;2023-06-22T20:19:43;99106.38;;;29.29;37.72
69796;BME280;57073;45.650;9.612;2023-06-22T20:24:45;99097.22;;;29.28;37.07
69796;BME280;57073;45.650;9.612;2023-06-22T20:29:45;99075.22;;;29.20;37.78
69796;BME280;57073;45.650;9.612;2023-06-22T20:34:46;99086.34;;;29.20;37.90
69796;BME280;57073;45.650;9.612;2023-06-22T20:39:47;99086.19;;;29.32;37.29
69796;BME280;57073;45.650;9.612;2023-06-22T20:44:48;99081.31;;;29.25;37.25
69796;BME280;57073;45.650;9.612;2023-06-22T20:49:50;99088.03;;;29.24;36.85
69796;BME280;57073;45.650;9.612;2023-06-22T20:54:50;99094.41;;;29.05;38.68
69796;BME280;57073;45.650;9.612;2023-06-22T20:59:52;99092.69;;;29.01;38.81
69796;BME280;57073;45.650;9.612;2023-06-22T21:04:53;99095.19;;;28.86;39.12
69796;BME280;57073;45.650;9.612;2023-06-22T21:09:54;99088.22;;;28.96;39.06
69796;BME280;57073;45.650;9.612;2023-06-22T21:14:55;99091.19;;;28.84;39.16
69796;BME280;57073;45.650;9.612;2023-06-22T21:19:56;99088.78;;;28.82;39.47
69796;BME280;57073;45.650;9.612;2023-06-22T21:25:07;99083.63;;;28.65;39.45
69796;BME280;57073;45.650;9.612;2023-06-22T21:30:12;99074.22;;;28.50;39.71
69796;BME280;57073;45.650;9.612;2023-06-22T21:35:12;99075.31;;;28.29;39.67
69796;BME280;57073;45.650;9.612;2023-06-22T21:40:14;99064.78;;;28.19;38.69
69796;BME280;57073;45.650;9.612;2023-06-22T21:45:14;99057.28;;;28.20;39.39
69796;BME280;57073;45.650;9.612;2023-06-22T21:50:14;99049.88;;;28.08;38.89
69796;BME280;57073;45.650;9.612;2023-06-22T21:55:15;99043.66;;;27.63;39.83
69796;BME280;57073;45.650;9.612;2023-06-22T22:00:15;99031.00;;;27.18;40.44
69796;BME280;57073;45.650;9.612;2023-06-22T22:05:16;99031.59;;;27.39;40.13
69796;BME280;57073;45.650;9.612;2023-06-22T22:10:18;99012.78;;;27.33;39.61
69796;BME280;57073;45.650;9.612;2023-06-22T22:15:19;99005.19;;;27.14;40.14
69796;BME280;57073;45.650;9.612;2023-06-22T22:20:19;99004.94;;;26.75;40.90
69796;BME280;57073;45.650;9.612;2023-06-22T22:25:19;99019.06;;;26.86;40.30
69796;BME280;57073;45.650;9.612;2023-06-22T22:30:20;99016.44;;;27.05;40.37
69796;BME280;57073;45.650;9.612;2023-06-22T22:35:20;99024.16;;;27.28;39.94
69796;BME280;57073;45.650;9.612;2023-06-22T22:40:20;99038.09;;;27.47;39.71
69796;BME280;57073;45.650;9.612;2023-06-22T22:45:21;99050.88;;;27.52;39.18
69796;BME280;57073;45.650;9.612;2023-06-22T22:50:21;99044.91;;;27.50;39.00
69796;BME280;57073;45.650;9.612;2023-06-22T22:55:22;99062.38;;;27.38;38.97
69796;BME280;57073;45.650;9.612;2023-06-22T23:00:22;99066.91;;;27.30;40.20
69796;BME280;57073;45.650;9.612;2023-06-22T23:05:23;99080.91;;;27.50;40.12
69796;BME280;57073;45.650;9.612;2023-06-22T23:10:23;99095.91;;;27.49;39.38
69796;BME280;57073;45.650;9.612;2023-06-22T23:15:23;99106.13;;;27.32;40.60
69796;BME280;57073;45.650;9.612;2023-06-22T23:20:24;99098.72;;;27.36;40.16
69796;BME280;57073;45.650;9.612;2023-06-22T23:25:27;99087.44;;;27.29;40.73
69796;BME280;57073;45.650;9.612;2023-06-22T23:30:27;99086.25;;;27.43;40.78
69796;BME280;57073;45.650;9.612;2023-06-22T23:35:28;99081.09;;;27.29;41.06
69796;BME280;57073;45.650;9.612;2023-06-22T23:40:28;99093.19;;;27.36;41.18
69796;BME280;57073;45.650;9.612;2023-06-22T23:45:30;99084.53;;;27.38;40.61
69796;BME280;57073;45.650;9.612;2023-06-22T23:50:31;99075.13;;;27.27;41.85
69796;BME280;57073;45.650;9.612;2023-06-22T23:55:31;99075.72;;;27.20;41.53
